sensor_id;sensor_type;location;lat;lon;timestamp;P1;durP1;ratioP1;P2;durP2;ratioP2
46983;SDS011;34732;52.112;9.366;2023-11-19T09:10:32;2.50;;;2.50;;
46983;SDS011;34732;52.112;9.366;2023-11-19T09:14:01;2.75;;;2.75;;
46983;SDS011;34732;52.112;9.366;2023-11-19T09:17:25;3.50;;;3.50;;
46983;SDS011;34732;52.112;9.366;2023-11-19T09:20:53;4.75;;;4.25;;
46983;SDS011;34732;52.112;9.366;2023-11-19T09:24:19;4.00;;;3.25;;
46983;SDS011;34732;52.112;9.366;2023-11-19T09:31:48;5.25;;;5.00;;
46983;SDS011;34732;52.112;9.366;2023-11-19T09:35:25;4.00;;;3.75;;
46983;SDS011;34732;52.112;9.366;2023-11-19T09:38:48;5.75;;;3.25;;
46983;SDS011;34732;52.112;9.366;2023-11-19T09:42:14;5.50;;;3.75;;
46983;SDS011;34732;52.112;9.366;2023-11-19T09:45:45;4.50;;;3.00;;
46983;SDS011;34732;52.112;9.366;2023-11-19T09:49:11;4.00;;;3.25;;
46983;SDS011;34732;52.112;9.366;2023-11-19T09:52:35;2.50;;;2.50;;
46983;SDS011;34732;52.112;9.366;2023-11-19T09:55:56;4.25;;;3.50;;
46983;SDS011;34732;52.112;9.366;2023-11-19T09:59:21;4.00;;;3.75;;
46983;SDS011;34732;52.112;9.366;2023-11-19T10:02:45;4.00;;;3.75;;
46983;SDS011;34732;52.112;9.366;2023-11-19T10:06:09;3.50;;;3.00;;
46983;SDS011;34732;52.112;9.366;2023-11-19T10:09:31;2.50;;;2.00;;
46983;SDS011;34732;52.112;9.366;2023-11-19T10:12:55;3.25;;;2.00;;
46983;SDS011;34732;52.112;9.366;2023-11-19T10:16:27;4.25;;;3.50;;
46983;SDS011;34732;52.112;9.366;2023-11-19T10:19:51;2.00;;;2.00;;
46983;SDS011;34732;52.112;9.366;2023-11-19T10:23:12;4.50;;;3.00;;
46983;SDS011;34732;52.112;9.366;2023-11-19T10:26:35;3.00;;;2.50;;
46983;SDS011;34732;52.112;9.366;2023-11-19T10:30:00;3.00;;;3.00;;
46983;SDS011;34732;52.112;9.366;2023-11-19T10:33:29;2.00;;;2.00;;
46983;SDS011;34732;52.112;9.366;2023-11-19T10:36:55;4.00;;;3.75;;
46983;SDS011;34732;52.112;9.366;2023-11-19T10:40:16;2.25;;;2.00;;
46983;SDS011;34732;52.112;9.366;2023-11-19T10:43:42;4.50;;;3.75;;
46983;SDS011;34732;52.112;9.366;2023-11-19T10:47:06;2.75;;;2.75;;
46983;SDS011;34732;52.112;9.366;2023-11-19T10:50:32;2.50;;;2.00;;
46983;SDS011;34732;52.112;9.366;2023-11-19T10:54:00;2.00;;;1.75;;
46983;SDS011;34732;52.112;9.366;2023-11-19T10:57:30;2.00;;;2.00;;
46983;SDS011;34732;52.112;9.366;2023-11-19T11:00:56;3.25;;;3.00;;
46983;SDS011;34732;52.112;9.366;2023-11-19T11:04:24;2.00;;;1.25;;
46983;SDS011;34732;52.112;9.366;2023-11-19T11:07:48;2.00;;;2.00;;
46983;SDS011;34732;52.112;9.366;2023-11-19T11:11:15;3.00;;;1.75;;
46983;SDS011;34732;52.112;9.366;2023-11-19T11:14:43;2.00;;;1.50;;
46983;SDS011;34732;52.112;9.366;2023-11-19T11:18:08;3.00;;;3.00;;
46983;SDS011;34732;52.112;9.366;2023-11-19T11:21:38;1.50;;;1.00;;
46983;SDS011;34732;52.112;9.366;2023-11-19T11:28:48;2.75;;;2.75;;
46983;SDS011;34732;52.112;9.366;2023-11-19T11:32:25;3.00;;;2.50;;
46983;SDS011;34732;52.112;9.366;2023-11-19T11:39:26;1.50;;;1.50;;
46983;SDS011;34732;52.112;9.366;2023-11-19T11:42:52;2.00;;;2.00;;
46983;SDS011;34732;52.112;9.366;2023-11-19T11:50:05;2.75;;;2.75;;
46983;SDS011;34732;52.112;9.366;2023-11-19T11:53:29;2.25;;;2.00;;
46983;SDS011;34732;52.112;9.366;2023-11-19T11:57:04;2.00;;;2.00;;
46983;SDS011;34732;52.112;9.366;2023-11-19T12:00:40;3.50;;;2.50;;
46983;SDS011;34732;52.112;9.366;2023-11-19T12:04:04;1.75;;;1.75;;
46983;SDS011;34732;52.112;9.366;2023-11-19T12:07:26;2.00;;;2.00;;
46983;SDS011;34732;52.112;9.366;2023-11-19T12:10:50;2.75;;;2.75;;
46983;SDS011;34732;52.112;9.366;2023-11-19T12:14:12;2.00;;;0.00;;
46983;SDS011;34732;52.112;9.366;2023-11-19T12:20:57;2.00;;;2.00;;
46983;SDS011;34732;52.112;9.366;2023-11-19T12:24:27;3.00;;;3.00;;
46983;SDS011;34732;52.112;9.366;2023-11-19T12:27:51;1.50;;;1.25;;
46983;SDS011;34732;52.112;9.366;2023-11-19T12:31:15;2.00;;;2.00;;
46983;SDS011;34732;52.112;9.366;2023-11-19T12:34:36;1.50;;;1.50;;
46983;SDS011;34732;52.112;9.366;2023-11-19T12:37:58;2.00;;;2.00;;
46983;SDS011;34732;52.112;9.366;2023-11-19T12:41:21;3.75;;;2.75;;
46983;SDS011;34732;52.112;9.366;2023-11-19T12:44:57;2.75;;;2.00;;
46983;SDS011;34732;52.112;9.366;2023-11-19T12:48:21;1.75;;;1.75;;
46983;SDS011;34732;52.112;9.366;2023-11-19T12:51:47;2.00;;;1.00;;
46983;SDS011;34732;52.112;9.366;2023-11-19T12:55:25;2.00;;;2.00;;
46983;SDS011;34732;52.112;9.366;2023-11-19T12:58:54;3.00;;;2.00;;
46983;SDS011;34732;52.112;9.366;2023-11-19T13:02:20;4.50;;;3.00;;
46983;SDS011;34732;52.112;9.366;2023-11-19T13:05:41;4.00;;;3.50;;
46983;SDS011;34732;52.112;9.366;2023-11-19T13:09:04;1.00;;;1.00;;
46983;SDS011;34732;52.112;9.366;2023-11-19T13:12:30;2.00;;;1.00;;
46983;SDS011;34732;52.112;9.366;2023-11-19T13:15:54;3.25;;;3.25;;
46983;SDS011;34732;52.112;9.366;2023-11-19T13:19:29;3.00;;;3.00;;
46983;SDS011;34732;52.112;9.366;2023-11-19T13:23:05;2.25;;;2.25;;
46983;SDS011;34732;52.112;9.366;2023-11-19T13:26:33;4.50;;;4.00;;
46983;SDS011;34732;52.112;9.366;2023-11-19T13:29:57;0.00;;;0.00;;
46983;SDS011;34732;52.112;9.366;2023-11-19T13:33:19;2.50;;;2.00;;
46983;SDS011;34732;52.112;9.366;2023-11-19T13:36:43;2.25;;;2.25;;
46983;SDS011;34732;52.112;9.366;2023-11-19T13:40:04;1.50;;;1.50;;
46983;SDS011;34732;52.112;9.366;2023-11-19T13:43:32;1.75;;;1.50;;
46983;SDS011;34732;52.112;9.366;2023-11-19T13:46:58;3.00;;;1.25;;
46983;SDS011;34732;52.112;9.366;2023-11-19T13:50:23;1.00;;;1.00;;
46983;SDS011;34732;52.112;9.366;2023-11-19T13:53:49;2.00;;;2.00;;
46983;SDS011;34732;52.112;9.366;2023-11-19T13:57:14;3.33;;;3.00;;
46983;SDS011;34732;52.112;9.366;2023-11-19T14:00:36;3.25;;;3.00;;
46983;SDS011;34732;52.112;9.366;2023-11-19T14:04:00;2.00;;;2.00;;
46983;SDS011;34732;52.112;9.366;2023-11-19T14:07:25;2.00;;;1.75;;
46983;SDS011;34732;52.112;9.366;2023-11-19T14:10:48;2.00;;;2.00;;
46983;SDS011;34732;52.112;9.366;2023-11-19T14:14:12;3.50;;;3.50;;
46983;SDS011;34732;52.112;9.366;2023-11-19T14:17:36;1.50;;;1.50;;
46983;SDS011;34732;52.112;9.366;2023-11-19T14:21:00;2.25;;;2.00;;
46983;SDS011;34732;52.112;9.366;2023-11-19T14:24:24;2.50;;;2.00;;
46983;SDS011;34732;52.112;9.366;2023-11-19T14:27:50;2.75;;;2.00;;
46983;SDS011;34732;52.112;9.366;2023-11-19T14:31:11;2.00;;;2.00;;
46983;SDS011;34732;52.112;9.366;2023-11-19T14:34:39;3.00;;;2.00;;
46983;SDS011;34732;52.112;9.366;2023-11-19T14:38:05;1.67;;;1.67;;
46983;SDS011;34732;52.112;9.366;2023-11-19T14:41:31;1.75;;;1.50;;
46983;SDS011;34732;52.112;9.366;2023-11-19T14:44:57;1.25;;;1.25;;
46983;SDS011;34732;52.112;9.366;2023-11-19T14:48:21;1.75;;;1.75;;
46983;SDS011;34732;52.112;9.366;2023-11-19T14:51:47;1.25;;;1.00;;
46983;SDS011;34732;52.112;9.366;2023-11-19T14:55:13;0.75;;;0.75;;
46983;SDS011;34732;52.112;9.366;2023-11-19T14:58:39;2.00;;;1.00;;
46983;SDS011;34732;52.112;9.366;2023-11-19T15:02:05;1.25;;;1.25;;
46983;SDS011;34732;52.112;9.366;2023-11-19T15:05:26;3.50;;;3.00;;
46983;SDS011;34732;52.112;9.366;2023-11-19T15:08:51;5.00;;;4.00;;
46983;SDS011;34732;52.112;9.366;2023-11-19T15:12:13;5.00;;;5.00;;
46983;SDS011;34732;52.112;9.366;2023-11-19T15:15:35;4.50;;;4.50;;
46983;SDS011;34732;52.112;9.366;2023-11-19T15:18:57;6.00;;;5.00;;
46983;SDS011;34732;52.112;9.366;2023-11-19T15:22:22;6.25;;;5.00;;
46983;SDS011;34732;52.112;9.366;2023-11-19T15:25:47;4.00;;;3.00;;
46983;SDS011;34732;52.112;9.366;2023-11-19T15:29:09;3.25;;;2.50;;
46983;SDS011;34732;52.112;9.366;2023-11-19T15:32:33;4.00;;;4.00;;
46983;SDS011;34732;52.112;9.366;2023-11-19T15:39:59;5.25;;;3.00;;
46983;SDS011;34732;52.112;9.366;2023-11-19T15:43:23;1.75;;;0.00;;
46983;SDS011;34732;52.112;9.366;2023-11-19T15:46:44;3.00;;;2.75;;
46983;SDS011;34732;52.112;9.366;2023-11-19T15:50:07;5.25;;;4.00;;
46983;SDS011;34732;52.112;9.366;2023-11-19T15:53:33;3.75;;;3.00;;
46983;SDS011;34732;52.112;9.366;2023-11-19T15:56:57;3.00;;;3.00;;
46983;SDS011;34732;52.112;9.366;2023-11-19T16:00:18;7.00;;;4.00;;
46983;SDS011;34732;52.112;9.366;2023-11-19T16:03:44;3.50;;;3.00;;
46983;SDS011;34732;52.112;9.366;2023-11-19T16:07:07;5.00;;;4.00;;
46983;SDS011;34732;52.112;9.366;2023-11-19T16:10:33;3.50;;;3.50;;
46983;SDS011;34732;52.112;9.366;2023-11-19T16:14:00;4.25;;;3.00;;
46983;SDS011;34732;52.112;9.366;2023-11-19T16:17:25;3.25;;;2.75;;
46983;SDS011;34732;52.112;9.366;2023-11-19T16:20:50;3.25;;;3.00;;
46983;SDS011;34732;52.112;9.366;2023-11-19T16:24:11;3.00;;;2.50;;
46983;SDS011;34732;52.112;9.366;2023-11-19T16:27:32;2.00;;;1.75;;
46983;SDS011;34732;52.112;9.366;2023-11-19T16:31:02;5.50;;;3.50;;
46983;SDS011;34732;52.112;9.366;2023-11-19T16:34:25;4.00;;;3.75;;
46983;SDS011;34732;52.112;9.366;2023-11-19T16:37:52;2.00;;;2.00;;
46983;SDS011;34732;52.112;9.366;2023-11-19T16:41:25;3.00;;;2.25;;
46983;SDS011;34732;52.112;9.366;2023-11-19T16:44:51;4.00;;;4.00;;
46983;SDS011;34732;52.112;9.366;2023-11-19T16:48:17;3.75;;;3.75;;
46983;SDS011;34732;52.112;9.366;2023-11-19T16:51:44;3.25;;;3.25;;
46983;SDS011;34732;52.112;9.366;2023-11-19T16:55:10;5.25;;;4.25;;
46983;SDS011;34732;52.112;9.366;2023-11-19T16:58:33;8.50;;;8.00;;
46983;SDS011;34732;52.112;9.366;2023-11-19T17:01:55;13.50;;;12.75;;
46983;SDS011;34732;52.112;9.366;2023-11-19T17:05:18;11.75;;;11.75;;
46983;SDS011;34732;52.112;9.366;2023-11-19T17:08:40;12.50;;;12.00;;
46983;SDS011;34732;52.112;9.366;2023-11-19T17:12:06;17.50;;;16.00;;
46983;SDS011;34732;52.112;9.366;2023-11-19T17:15:29;18.50;;;16.75;;
46983;SDS011;34732;52.112;9.366;2023-11-19T17:18:53;22.25;;;22.25;;
46983;SDS011;34732;52.112;9.366;2023-11-19T17:22:19;20.75;;;20.75;;
46983;SDS011;34732;52.112;9.366;2023-11-19T17:25:45;22.00;;;22.00;;
46983;SDS011;34732;52.112;9.366;2023-11-19T17:29:08;20.75;;;20.00;;
46983;SDS011;34732;52.112;9.366;2023-11-19T17:32:32;35.25;;;32.00;;
46983;SDS011;34732;52.112;9.366;2023-11-19T17:35:57;27.75;;;26.50;;
46983;SDS011;34732;52.112;9.366;2023-11-19T17:39:24;28.75;;;24.00;;
46983;SDS011;34732;52.112;9.366;2023-11-19T17:46:52;16.75;;;14.75;;
46983;SDS011;34732;52.112;9.366;2023-11-19T17:50:13;20.75;;;18.75;;
46983;SDS011;34732;52.112;9.366;2023-11-19T17:53:55;18.75;;;18.50;;
46983;SDS011;34732;52.112;9.366;2023-11-19T17:57:16;26.33;;;24.00;;
46983;SDS011;34732;52.112;9.366;2023-11-19T18:00:42;23.75;;;21.75;;
46983;SDS011;34732;52.112;9.366;2023-11-19T18:04:08;22.25;;;19.75;;
46983;SDS011;34732;52.112;9.366;2023-11-19T18:07:29;19.50;;;17.50;;
46983;SDS011;34732;52.112;9.366;2023-11-19T18:10:53;16.75;;;16.25;;
46983;SDS011;34732;52.112;9.366;2023-11-19T18:14:14;18.50;;;17.75;;
46983;SDS011;34732;52.112;9.366;2023-11-19T18:17:38;18.25;;;16.50;;
46983;SDS011;34732;52.112;9.366;2023-11-19T18:21:05;17.50;;;15.75;;
46983;SDS011;34732;52.112;9.366;2023-11-19T18:24:29;15.75;;;15.00;;
46983;SDS011;34732;52.112;9.366;2023-11-19T18:27:59;17.50;;;16.50;;
46983;SDS011;34732;52.112;9.366;2023-11-19T18:31:20;14.50;;;13.75;;
46983;SDS011;34732;52.112;9.366;2023-11-19T18:34:43;15.00;;;13.75;;
46983;SDS011;34732;52.112;9.366;2023-11-19T18:38:09;17.00;;;14.75;;
46983;SDS011;34732;52.112;9.366;2023-11-19T18:41:30;15.00;;;14.25;;
46983;SDS011;34732;52.112;9.366;2023-11-19T18:45:09;15.25;;;14.50;;
46983;SDS011;34732;52.112;9.366;2023-11-19T18:52:57;16.25;;;15.25;;
46983;SDS011;34732;52.112;9.366;2023-11-19T18:56:20;13.00;;;13.00;;
46983;SDS011;34732;52.112;9.366;2023-11-19T18:59:44;14.00;;;13.00;;
46983;SDS011;34732;52.112;9.366;2023-11-19T19:03:08;13.75;;;13.75;;
46983;SDS011;34732;52.112;9.366;2023-11-19T19:06:36;14.25;;;12.50;;
46983;SDS011;34732;52.112;9.366;2023-11-19T19:10:02;12.75;;;12.25;;
46983;SDS011;34732;52.112;9.366;2023-11-19T19:13:26;12.25;;;11.25;;
46983;SDS011;34732;52.112;9.366;2023-11-19T19:16:50;10.00;;;8.25;;
46983;SDS011;34732;52.112;9.366;2023-11-19T19:24:09;12.75;;;11.00;;
46983;SDS011;34732;52.112;9.366;2023-11-19T19:27:30;13.50;;;11.25;;
46983;SDS011;34732;52.112;9.366;2023-11-19T19:30:52;9.75;;;9.25;;
46983;SDS011;34732;52.112;9.366;2023-11-19T19:34:16;10.00;;;10.00;;
46983;SDS011;34732;52.112;9.366;2023-11-19T19:37:37;10.00;;;9.25;;
46983;SDS011;34732;52.112;9.366;2023-11-19T19:41:01;10.00;;;10.00;;
46983;SDS011;34732;52.112;9.366;2023-11-19T19:44:25;9.00;;;9.00;;
46983;SDS011;34732;52.112;9.366;2023-11-19T19:47:49;5.00;;;5.00;;
46983;SDS011;34732;52.112;9.366;2023-11-19T19:51:14;6.75;;;6.50;;
46983;SDS011;34732;52.112;9.366;2023-11-19T19:54:36;7.00;;;6.00;;
46983;SDS011;34732;52.112;9.366;2023-11-19T19:57:57;5.75;;;5.50;;
46983;SDS011;34732;52.112;9.366;2023-11-19T20:01:23;3.25;;;3.25;;
